Time;durP1;ratioP1;P1;durP2;ratioP2;P2;SDS_P1;SDS_P2;PMS_P1;PMS_P2;Temp;Humidity;BMP_temperature;BMP_pressure;BME280_temperature;BME280_humidity;BME280_pressure;Samples;Min_cycle;Max_cycle;Signal;HPM_P1;HPM_P2
2022/05/04 00:01:50;;;;;;;5.80;3.47;;;13.30;86.50;;;;;;5072176;28;20197;-80
2022/05/04 00:04:19;;;;;;;7.50;4.00;;;13.30;86.80;;;;;;5069837;28;20298;-80
2022/05/04 00:06:47;;;;;;;5.47;3.47;;;13.30;86.90;;;;;;5065916;28;20201;-80
2022/05/04 00:09:15;;;;;;;5.33;3.50;;;13.30;86.80;;;;;;5078378;28;20213;-82
2022/05/04 00:11:45;;;;;;;4.73;3.00;;;13.20;86.80;;;;;;5073145;28;20212;-82
2022/05/04 00:14:14;;;;;;;9.00;3.80;;;13.30;87.00;;;;;;5076986;28;20241;-81
2022/05/04 00:16:42;;;;;;;6.10;3.83;;;13.20;86.90;;;;;;5065976;28;20187;-80
2022/05/04 00:19:10;;;;;;;8.20;3.50;;;13.20;86.90;;;;;;5072551;28;20211;-81
2022/05/04 00:21:39;;;;;;;7.10;3.83;;;13.20;86.90;;;;;;5068635;28;20305;-80
2022/05/04 00:24:07;;;;;;;5.47;3.80;;;13.20;87.10;;;;;;5075895;28;20190;-82
2022/05/04 00:26:36;;;;;;;4.93;3.40;;;13.20;87.20;;;;;;5072410;28;20850;-81
2022/05/04 00:29:05;;;;;;;8.20;3.37;;;13.20;87.10;;;;;;5077411;28;20190;-80
2022/05/04 00:31:34;;;;;;;5.13;3.57;;;13.10;87.30;;;;;;5073312;28;20221;-80
2022/05/04 00:34:02;;;;;;;5.37;3.20;;;13.10;87.40;;;;;;5080719;28;20754;-79
2022/05/04 00:36:31;;;;;;;5.80;3.73;;;13.10;87.40;;;;;;5085697;28;20217;-82
2022/05/04 00:38:59;;;;;;;9.23;3.20;;;13.10;87.30;;;;;;5080782;28;20198;-81
2022/05/04 00:41:28;;;;;;;6.40;3.23;;;13.10;87.60;;;;;;5079750;28;20652;-81
2022/05/04 00:43:57;;;;;;;5.10;3.10;;;13.00;87.50;;;;;;5079579;28;20286;-82
2022/05/04 00:46:27;;;;;;;9.93;3.63;;;13.00;87.50;;;;;;5071588;28;20202;-81
2022/05/04 00:48:55;;;;;;;7.47;3.60;;;13.00;87.70;;;;;;5075070;28;20277;-80
2022/05/04 00:51:24;;;;;;;7.03;3.43;;;13.00;87.60;;;;;;5083219;28;20245;-81
2022/05/04 00:53:53;;;;;;;5.53;3.60;;;13.00;87.60;;;;;;5069828;28;20189;-80
2022/05/04 00:56:22;;;;;;;6.43;3.47;;;13.00;87.80;;;;;;5065766;28;20201;-81
2022/05/04 00:58:55;;;;;;;5.73;3.20;;;13.00;87.80;;;;;;5068721;28;20201;-80
2022/05/04 01:01:27;;;;;;;6.80;3.47;;;13.00;87.80;;;;;;5072555;28;20663;-81
2022/05/04 01:03:56;;;;;;;6.00;3.83;;;13.00;87.80;;;;;;5065594;28;20194;-81
2022/05/04 01:06:25;;;;;;;6.93;3.93;;;13.00;87.80;;;;;;5077158;28;20225;-81
2022/05/04 01:08:55;;;;;;;12.97;4.00;;;13.00;87.90;;;;;;5083003;28;20205;-81
2022/05/04 01:11:23;;;;;;;6.27;3.33;;;13.00;87.90;;;;;;5067850;28;20226;-78
2022/05/04 01:14:00;;;;;;;6.77;3.20;;;13.00;87.90;;;;;;5064147;28;20230;-81
2022/05/04 01:16:31;;;;;;;5.83;2.90;;;13.00;87.80;;;;;;5073889;28;20197;-81
2022/05/04 01:18:59;;;;;;;5.60;3.37;;;13.00;87.70;;;;;;5066238;28;20194;-81
2022/05/04 01:21:28;;;;;;;5.57;3.47;;;13.00;87.50;;;;;;5075313;28;20283;-80
2022/05/04 01:23:58;;;;;;;5.97;3.40;;;13.00;87.40;;;;;;5070705;28;20190;-81
2022/05/04 01:26:27;;;;;;;4.70;3.33;;;13.00;87.50;;;;;;5080010;28;20212;-80
2022/05/04 01:28:55;;;;;;;6.83;3.20;;;13.00;87.40;;;;;;5085186;28;20694;-80
2022/05/04 01:31:23;;;;;;;6.53;3.50;;;13.00;87.40;;;;;;5073967;28;20725;-80
2022/05/04 01:33:52;;;;;;;4.50;3.13;;;13.00;87.40;;;;;;5072468;28;20190;-80
2022/05/04 01:36:21;;;;;;;5.87;3.20;;;13.00;87.20;;;;;;5082319;28;20580;-79
2022/05/04 01:38:49;;;;;;;4.77;3.43;;;13.00;87.20;;;;;;5073002;28;20198;-80
2022/05/04 01:44:05;;;;;;;7.80;3.50;;;13.00;87.20;;;;;;5080612;28;20237;-80
2022/05/04 01:46:33;;;;;;;6.30;3.20;;;13.00;87.10;;;;;;5074410;28;20194;-81
2022/05/04 01:49:01;;;;;;;7.93;3.60;;;13.00;87.10;;;;;;5080257;28;20765;-80
2022/05/04 01:51:30;;;;;;;7.03;3.70;;;13.00;86.90;;;;;;5076450;28;20798;-78
2022/05/04 01:53:58;;;;;;;5.57;3.37;;;13.00;86.90;;;;;;5080190;28;20194;-79
2022/05/04 01:56:28;;;;;;;6.30;3.53;;;13.10;86.90;;;;;;5074248;28;20220;-79
2022/05/04 01:58:56;;;;;;;6.17;3.30;;;13.00;86.90;;;;;;5073825;28;20194;-79
2022/05/04 02:01:25;;;;;;;5.53;3.23;;;13.10;86.90;;;;;;5075058;28;20689;-76
2022/05/04 02:03:53;;;;;;;5.43;3.10;;;13.10;86.80;;;;;;5077419;28;20224;-80
2022/05/04 02:06:22;;;;;;;9.10;3.13;;;13.10;86.80;;;;;;5076378;28;20205;-80
2022/05/04 02:08:50;;;;;;;6.37;3.30;;;13.00;86.60;;;;;;5081776;28;20189;-81
2022/05/04 02:11:19;;;;;;;5.03;3.03;;;13.10;86.70;;;;;;5072500;28;20186;-79
2022/05/04 02:13:49;;;;;;;4.67;3.23;;;13.00;86.60;;;;;;5060185;28;20226;-80
2022/05/04 02:16:17;;;;;;;5.67;3.03;;;13.00;86.70;;;;;;5052203;28;20203;-80
2022/05/04 02:18:46;;;;;;;5.47;3.00;;;13.00;86.70;;;;;;5048299;28;20290;-80
2022/05/04 02:21:14;;;;;;;9.80;3.63;;;13.00;86.50;;;;;;5049525;28;20191;-79
2022/05/04 02:23:42;;;;;;;4.07;2.83;;;13.00;86.40;;;;;;5045922;28;20221;-78
2022/05/04 02:26:11;;;;;;;5.50;2.93;;;13.00;86.30;;;;;;5050979;28;20206;-80
2022/05/04 02:28:39;;;;;;;5.07;2.87;;;13.00;86.40;;;;;;5054510;28;20202;-79
2022/05/04 02:31:09;;;;;;;4.13;2.90;;;13.00;86.30;;;;;;5044727;28;20806;-80
2022/05/04 02:33:37;;;;;;;5.17;3.10;;;13.00;86.30;;;;;;5049441;28;20218;-79
2022/05/04 02:38:52;;;;;;;4.57;3.03;;;13.00;86.40;;;;;;5060162;28;20190;-80
2022/05/04 02:41:20;;;;;;;5.30;3.40;;;13.00;86.30;;;;;;5061062;28;20199;-78
2022/05/04 02:43:49;;;;;;;5.07;2.83;;;13.00;86.30;;;;;;5043450;28;20199;-80
2022/05/04 02:46:22;;;;;;;8.13;2.87;;;13.00;86.30;;;;;;5046841;28;20190;-79
2022/05/04 02:48:51;;;;;;;5.07;3.20;;;12.90;86.20;;;;;;5053832;28;21795;-80
2022/05/04 02:51:19;;;;;;;6.10;3.40;;;12.90;86.20;;;;;;5064915;28;20209;-81
2022/05/04 02:53:48;;;;;;;6.77;3.40;;;13.00;86.20;;;;;;5048678;28;20230;-79
2022/05/04 02:56:16;;;;;;;5.70;3.17;;;12.90;86.20;;;;;;5044068;28;20201;-80
2022/05/04 02:58:45;;;;;;;7.93;4.13;;;12.90;86.30;;;;;;5052929;28;20570;-78
2022/05/04 03:04:06;;;;;;;5.50;3.40;;;12.90;86.20;;;;;;5048474;28;20201;-78
2022/05/04 03:06:34;;;;;;;6.77;3.50;;;12.80;86.30;;;;;;5049873;28;20194;-79
2022/05/04 03:09:03;;;;;;;5.43;3.27;;;12.80;86.20;;;;;;5061253;28;20204;-80
2022/05/04 03:14:19;;;;;;;6.87;3.23;;;12.80;86.40;;;;;;5064645;28;20225;-79
2022/05/04 03:16:48;;;;;;;8.10;3.57;;;12.80;86.50;;;;;;5051971;28;20193;-80
2022/05/04 03:19:17;;;;;;;6.00;4.03;;;12.80;86.50;;;;;;5059575;28;20195;-79
2022/05/04 03:21:47;;;;;;;7.13;4.07;;;12.80;86.50;;;;;;5054381;28;20202;-80
2022/05/04 03:24:15;;;;;;;7.37;4.00;;;12.70;86.50;;;;;;5062191;28;20198;-80
2022/05/04 03:26:44;;;;;;;8.03;4.47;;;12.70;86.50;;;;;;5063096;28;20686;-77
2022/05/04 03:29:12;;;;;;;11.97;4.77;;;12.70;86.70;;;;;;5060343;28;20870;-79
2022/05/04 03:31:41;;;;;;;12.97;5.73;;;12.70;86.60;;;;;;5056346;28;20194;-79
2022/05/04 03:34:09;;;;;;;6.80;4.20;;;12.70;86.70;;;;;;5054723;28;20867;-79
2022/05/04 03:36:39;;;;;;;8.97;4.33;;;12.70;86.80;;;;;;5055143;28;20233;-79
2022/05/04 03:39:09;;;;;;;13.20;5.40;;;12.70;86.80;;;;;;5061851;28;20191;-79
2022/05/04 03:41:38;;;;;;;9.00;5.00;;;12.70;86.80;;;;;;5057923;28;20198;-80
2022/05/04 03:44:07;;;;;;;8.40;4.17;;;12.70;86.80;;;;;;5057202;28;20195;-78
2022/05/04 03:46:43;;;;;;;13.57;5.37;;;12.70;86.90;;;;;;5056171;28;20190;-79
2022/05/04 03:49:13;;;;;;;7.90;3.80;;;12.80;86.80;;;;;;5059089;28;20202;-77
2022/05/04 03:51:43;;;;;;;5.37;3.10;;;12.80;86.80;;;;;;5056381;28;20225;-79
2022/05/04 03:54:12;;;;;;;12.63;4.40;;;12.80;86.80;;;;;;5060507;28;20227;-79
2022/05/04 03:56:41;;;;;;;5.17;3.10;;;12.80;86.80;;;;;;5053315;28;20187;-80
2022/05/04 03:59:09;;;;;;;8.23;3.47;;;12.80;86.80;;;;;;5051114;28;20228;-79
2022/05/04 04:01:38;;;;;;;5.13;3.37;;;12.80;86.90;;;;;;5059025;28;20191;-79
2022/05/04 04:04:07;;;;;;;8.63;3.23;;;12.80;86.80;;;;;;5052141;28;20198;-78
2022/05/04 04:06:35;;;;;;;7.07;4.07;;;12.90;86.70;;;;;;5052461;28;20190;-79
2022/05/04 04:09:05;;;;;;;10.57;3.63;;;12.90;86.70;;;;;;5059144;28;20198;-79
2022/05/04 04:11:34;;;;;;;7.57;3.73;;;12.90;86.70;;;;;;5046028;28;20242;-80
2022/05/04 04:14:05;;;;;;;7.47;3.23;;;12.90;86.60;;;;;;5052140;28;20241;-78
2022/05/04 04:16:34;;;;;;;14.77;4.47;;;13.00;86.60;;;;;;5047152;28;20198;-79
2022/05/04 04:19:02;;;;;;;10.10;4.10;;;13.00;86.40;;;;;;5059205;28;20198;-78
2022/05/04 04:24:19;;;;;;;8.00;3.50;;;13.10;86.30;;;;;;5066717;28;20183;-78
2022/05/04 04:26:47;;;;;;;7.23;3.43;;;13.10;86.20;;;;;;5046676;28;20194;-80
2022/05/04 04:29:15;;;;;;;6.87;3.83;;;13.10;86.30;;;;;;5052235;28;20641;-79
2022/05/04 04:31:44;;;;;;;7.60;3.33;;;13.10;86.20;;;;;;5051730;28;20194;-80
2022/05/04 04:34:13;;;;;;;6.37;2.50;;;13.20;86.20;;;;;;5051192;28;20214;-79
2022/05/04 04:36:43;;;;;;;4.80;2.83;;;13.20;86.20;;;;;;5055213;28;20205;-80
2022/05/04 04:39:11;;;;;;;5.50;2.83;;;13.20;86.00;;;;;;5051934;28;20198;-78
2022/05/04 04:41:47;;;;;;;13.30;3.97;;;13.20;86.00;;;;;;5052959;28;20193;-80
2022/05/04 04:44:15;;;;;;;7.57;3.53;;;13.20;86.10;;;;;;5057399;28;20594;-79
2022/05/04 04:46:45;;;;;;;6.03;3.40;;;13.20;86.00;;;;;;5051016;28;20232;-80
2022/05/04 04:49:14;;;;;;;7.60;4.00;;;13.30;86.20;;;;;;5057437;28;20281;-78
2022/05/04 04:51:42;;;;;;;8.20;3.80;;;13.30;86.30;;;;;;5062101;28;20198;-80
2022/05/04 04:54:11;;;;;;;9.63;4.07;;;13.30;86.30;;;;;;5045985;28;20727;-79
2022/05/04 04:56:39;;;;;;;8.33;3.43;;;13.30;86.20;;;;;;5046945;28;20187;-80
2022/05/04 04:59:09;;;;;;;6.67;3.47;;;13.40;86.30;;;;;;5065616;28;20658;-80
2022/05/04 05:01:37;;;;;;;9.83;3.93;;;13.40;87.20;;;;;;5070094;28;20900;-80
2022/05/04 05:04:05;;;;;;;6.80;3.20;;;13.40;86.40;;;;;;5055894;28;20302;-79
2022/05/04 05:06:34;;;;;;;7.93;3.00;;;13.50;86.40;;;;;;5057494;28;20197;-78
2022/05/04 05:09:02;;;;;;;9.63;4.60;;;13.50;86.50;;;;;;5060202;28;20746;-80
2022/05/04 05:11:30;;;;;;;7.33;3.40;;;13.60;86.40;;;;;;5056989;28;20197;-79
2022/05/04 05:16:49;;;;;;;10.57;3.53;;;13.70;86.40;;;;;;5061394;28;20226;-78
2022/05/04 05:19:21;;;;;;;7.30;4.00;;;13.80;86.30;;;;;;5058231;28;20186;-79
2022/05/04 05:21:50;;;;;;;7.17;3.60;;;13.80;86.00;;;;;;5049310;28;20783;-79
2022/05/04 05:24:19;;;;;;;5.17;3.50;;;13.90;85.90;;;;;;5058696;28;20194;-80
2022/05/04 05:26:47;;;;;;;7.10;3.93;;;14.00;85.80;;;;;;5053897;28;20205;-80
2022/05/04 05:29:16;;;;;;;6.77;3.60;;;14.10;85.70;;;;;;5059608;28;20197;-80
2022/05/04 05:31:44;;;;;;;8.60;3.93;;;14.10;85.50;;;;;;5056129;28;20268;-80
2022/05/04 05:34:14;;;;;;;6.07;3.57;;;14.20;85.50;;;;;;5066051;28;20246;-81
2022/05/04 05:36:42;;;;;;;6.47;3.90;;;14.30;85.40;;;;;;5054585;28;20186;-80
2022/05/04 05:39:10;;;;;;;11.90;3.83;;;14.30;85.20;;;;;;5061435;28;20224;-79
2022/05/04 05:41:39;;;;;;;9.07;4.03;;;14.40;85.10;;;;;;5056363;28;20210;-79
2022/05/04 05:44:09;;;;;;;6.80;4.03;;;14.50;85.00;;;;;;5057205;28;20198;-80
2022/05/04 05:46:37;;;;;;;11.47;3.87;;;14.60;84.90;;;;;;5055562;28;20187;-80
2022/05/04 05:49:06;;;;;;;12.00;4.17;;;14.70;84.80;;;;;;5064524;28;20194;-78
2022/05/04 05:51:36;;;;;;;11.73;4.10;;;14.80;84.40;;;;;;5058654;28;20290;-78
2022/05/04 05:54:05;;;;;;;7.13;4.17;;;14.90;84.10;;;;;;5063825;28;20991;-79
2022/05/04 05:56:33;;;;;;;8.57;4.77;;;15.00;84.10;;;;;;5062428;28;20289;-78
2022/05/04 05:59:03;;;;;;;10.02;4.57;;;15.10;84.00;;;;;;5055788;28;20440;-77
2022/05/04 06:01:32;;;;;;;9.63;3.97;;;15.30;83.80;;;;;;5061833;28;20190;-80
2022/05/04 06:04:00;;;;;;;6.77;3.80;;;15.40;83.50;;;;;;5062049;28;20204;-80
2022/05/04 06:06:29;;;;;;;5.73;3.77;;;15.50;83.20;;;;;;5050334;28;20190;-79
2022/05/04 06:09:00;;;;;;;9.23;4.20;;;15.60;82.70;;;;;;5048155;28;20205;-78
2022/05/04 06:11:31;;;;;;;11.23;4.33;;;15.80;82.50;;;;;;5054949;28;20195;-79
2022/05/04 06:13:59;;;;;;;7.87;4.07;;;15.90;82.10;;;;;;5040429;28;20226;-80
2022/05/04 06:16:27;;;;;;;14.73;4.73;;;16.00;81.60;;;;;;5054489;28;20191;-81
2022/05/04 06:18:59;;;;;;;7.93;4.33;;;16.10;81.40;;;;;;5053829;28;20231;-81
2022/05/04 06:21:27;;;;;;;6.10;3.90;;;16.20;81.30;;;;;;5046825;28;20198;-80
2022/05/04 06:23:56;;;;;;;7.70;4.43;;;16.40;81.10;;;;;;5059001;28;20201;-80
2022/05/04 06:26:26;;;;;;;9.47;4.43;;;16.50;80.70;;;;;;5058048;28;20223;-80
2022/05/04 06:28:54;;;;;;;11.17;4.37;;;16.60;80.50;;;;;;5063437;28;20213;-81
2022/05/04 06:34:08;;;;;;;9.00;4.73;;;16.70;79.40;;;;;;5043951;28;20206;-80
2022/05/04 06:36:36;;;;;;;9.13;4.57;;;16.80;79.60;;;;;;5054920;28;20199;-80
2022/05/04 06:39:04;;;;;;;10.10;4.47;;;16.90;79.40;;;;;;5051067;28;20649;-80
2022/05/04 06:41:35;;;;;;;12.20;5.07;;;16.90;79.20;;;;;;5057446;28;20190;-79
2022/05/04 06:44:03;;;;;;;14.33;4.80;;;17.00;78.80;;;;;;5060605;28;20198;-78
2022/05/04 06:46:32;;;;;;;8.37;4.63;;;17.10;77.90;;;;;;5053955;28;20195;-80
2022/05/04 06:49:00;;;;;;;9.57;4.60;;;17.20;77.70;;;;;;5062759;28;21002;-78
2022/05/04 06:51:28;;;;;;;10.33;4.67;;;17.30;77.80;;;;;;5062024;28;20190;-80
2022/05/04 06:53:57;;;;;;;12.33;5.17;;;17.30;77.60;;;;;;5065070;28;20593;-80
2022/05/04 06:56:46;;;;;;;8.73;4.23;;;17.40;77.70;;;;;;5064581;28;20382;-79
2022/05/04 06:59:15;;;;;;;11.10;5.17;;;17.50;77.50;;;;;;5055656;28;20209;-79
2022/05/04 07:01:45;;;;;;;10.60;5.00;;;17.70;77.60;;;;;;5063317;28;20233;-80
2022/05/04 07:04:14;;;;;;;8.63;4.33;;;17.80;77.30;;;;;;5066088;28;20194;-81
2022/05/04 07:06:42;;;;;;;11.73;5.07;;;17.80;77.00;;;;;;5065551;28;20194;-79
2022/05/04 07:09:11;;;;;;;6.97;4.83;;;17.90;77.10;;;;;;5062145;28;20198;-80
2022/05/04 07:11:39;;;;;;;8.57;4.50;;;18.00;76.60;;;;;;5053437;28;20199;-79
2022/05/04 07:14:09;;;;;;;7.67;4.60;;;18.10;76.30;;;;;;5070761;28;20559;-80
2022/05/04 07:16:38;;;;;;;10.07;5.00;;;18.20;76.30;;;;;;5074613;28;20527;-80
2022/05/04 07:19:14;;;;;;;7.37;4.30;;;18.20;76.00;;;;;;5067155;28;20190;-80
2022/05/04 07:21:42;;;;;;;7.00;4.10;;;18.30;75.60;;;;;;5069528;28;20786;-80
2022/05/04 07:24:11;;;;;;;8.73;4.80;;;18.40;75.30;;;;;;5063253;28;20198;-78
2022/05/04 07:26:40;;;;;;;10.93;5.00;;;18.50;75.10;;;;;;5060303;28;20194;-79
2022/05/04 07:29:10;;;;;;;6.63;4.47;;;18.60;74.00;;;;;;5075610;28;20209;-79
2022/05/04 07:31:42;;;;;;;8.40;5.30;;;18.60;74.00;;;;;;5067596;28;20201;-80
2022/05/04 07:34:11;;;;;;;7.97;5.20;;;18.70;74.10;;;;;;5066416;28;20204;-80
2022/05/04 07:36:40;;;;;;;11.67;5.60;;;18.80;74.10;;;;;;5076657;28;20201;-78
2022/05/04 07:39:08;;;;;;;8.43;5.00;;;18.90;72.90;;;;;;5054184;28;20226;-79
2022/05/04 07:44:26;;;;;;;10.13;5.27;;;18.90;72.00;;;;;;5067734;28;20197;-80
2022/05/04 07:46:54;;;;;;;10.50;5.30;;;18.90;72.20;;;;;;5061686;28;20191;-80
2022/05/04 07:49:22;;;;;;;10.23;5.20;;;19.00;72.00;;;;;;5066461;28;20201;-79
2022/05/04 07:51:53;;;;;;;10.80;5.60;;;19.00;72.30;;;;;;5069713;28;20202;-82
2022/05/04 07:54:22;;;;;;;8.63;5.30;;;19.10;71.70;;;;;;5067674;28;20193;-80
2022/05/04 07:56:50;;;;;;;7.10;4.70;;;19.20;71.00;;;;;;5064034;28;20209;-81
2022/05/04 07:59:19;;;;;;;9.00;4.57;;;19.20;71.00;;;;;;5066865;28;20191;-81
2022/05/04 08:04:34;;;;;;;7.33;4.20;;;19.40;70.80;;;;;;5048485;28;20232;-78
2022/05/04 08:07:04;;;;;;;9.47;4.77;;;19.40;70.70;;;;;;5059204;28;20206;-78
2022/05/04 08:09:36;;;;;;;9.77;4.50;;;19.50;70.00;;;;;;5063866;28;20214;-78
2022/05/04 08:12:06;;;;;;;11.00;5.07;;;19.60;70.00;;;;;;5076870;28;20206;-80
2022/05/04 08:14:34;;;;;;;7.80;4.80;;;19.60;70.00;;;;;;5053817;28;20305;-79
2022/05/04 08:17:05;;;;;;;8.80;4.30;;;19.70;70.00;;;;;;5074229;28;20199;-78
2022/05/04 08:19:33;;;;;;;8.10;4.80;;;19.70;69.50;;;;;;5066509;28;20521;-81
2022/05/04 08:22:02;;;;;;;8.37;4.53;;;19.80;68.70;;;;;;5062481;28;20191;-80
2022/05/04 08:24:30;;;;;;;11.20;4.53;;;19.80;68.90;;;;;;5049820;28;20217;-83
2022/05/04 08:26:58;;;;;;;9.77;4.13;;;19.90;68.70;;;;;;5063216;28;20218;-80
2022/05/04 08:29:27;;;;;;;8.90;4.10;;;20.00;68.00;;;;;;5061028;28;20198;-80
2022/05/04 08:31:56;;;;;;;9.57;4.47;;;20.00;68.30;;;;;;5070114;28;20196;-81
2022/05/04 08:34:26;;;;;;;8.47;4.17;;;20.10;67.70;;;;;;5070742;28;20195;-79
2022/05/04 08:36:55;;;;;;;7.10;4.20;;;20.10;66.90;;;;;;5052416;28;20219;-81
2022/05/04 08:39:23;;;;;;;9.73;4.73;;;20.20;66.10;;;;;;5052823;28;20205;-80
2022/05/04 08:41:52;;;;;;;5.83;3.97;;;20.30;65.60;;;;;;5066422;28;20212;-79
2022/05/04 08:44:20;;;;;;;7.20;4.37;;;20.30;65.60;;;;;;5076304;28;20232;-78
2022/05/04 08:46:51;;;;;;;9.67;4.33;;;20.40;65.90;;;;;;5048903;28;20191;-78
2022/05/04 08:49:20;;;;;;;10.87;4.27;;;20.40;65.60;;;;;;5051858;28;20194;-79
2022/05/04 08:51:51;;;;;;;7.63;4.13;;;20.50;65.30;;;;;;5063294;28;20202;-80
2022/05/04 08:54:20;;;;;;;7.80;3.93;;;20.60;65.20;;;;;;5062596;28;20194;-81
2022/05/04 08:56:48;;;;;;;9.43;3.90;;;20.60;65.10;;;;;;5077205;28;20232;-80
2022/05/04 08:59:16;;;;;;;13.23;3.80;;;20.70;64.50;;;;;;5051065;28;20204;-81
2022/05/04 09:01:46;;;;;;;7.60;3.70;;;20.70;64.40;;;;;;5055201;28;20756;-80
2022/05/04 09:04:14;;;;;;;8.60;3.97;;;20.80;63.70;;;;;;5063485;28;20763;-79
2022/05/04 09:06:44;;;;;;;8.38;4.45;;;20.90;64.00;;;;;;5063436;28;20664;-80
2022/05/04 09:09:14;;;;;;;9.13;4.63;;;20.90;63.30;;;;;;5068785;28;20194;-80
2022/05/04 09:11:44;;;;;;;10.37;4.80;;;21.00;63.30;;;;;;5060591;28;20191;-80
2022/05/04 09:14:14;;;;;;;8.00;4.83;;;21.10;62.30;;;;;;5064558;28;20237;-80
2022/05/04 09:16:44;;;;;;;7.63;3.80;;;21.10;61.50;;;;;;5060642;28;20931;-82
2022/05/04 09:19:14;;;;;;;8.68;4.07;;;21.20;62.30;;;;;;5063825;28;20195;-81
2022/05/04 09:21:44;;;;;;;11.43;5.15;;;21.20;62.80;;;;;;5068088;28;20198;-81
2022/05/04 09:24:15;;;;;;;9.15;4.32;;;21.30;62.70;;;;;;5065089;28;20199;-81
2022/05/04 09:26:45;;;;;;;6.93;3.83;;;21.30;62.80;;;;;;5052651;28;20194;-81
2022/05/04 09:29:15;;;;;;;6.65;4.15;;;21.50;63.10;;;;;;5056652;28;20201;-79
2022/05/04 09:31:48;;;;;;;7.90;3.70;;;21.50;62.40;;;;;;5064420;28;20191;-81
2022/05/04 09:34:16;;;;;;;6.32;3.22;;;21.60;60.80;;;;;;5064672;28;20191;-80
2022/05/04 09:45:09;;;;;;;6.35;3.70;;;21.90;61.10;;;;;;5055497;28;20683;-79
2022/05/04 09:47:39;;;;;;;4.70;2.72;;;21.90;60.30;;;;;;5054428;28;20201;-78
2022/05/04 09:50:09;;;;;;;5.32;2.55;;;22.00;59.20;;;;;;5050110;28;20195;-76
2022/05/04 09:52:42;;;;;;;7.93;3.55;;;22.10;58.80;;;;;;5062083;28;20194;-77
2022/05/04 09:55:24;;;;;;;5.15;2.85;;;22.20;58.90;;;;;;5010393;28;20261;-78
2022/05/04 09:57:56;;;;;;;9.27;3.45;;;22.20;58.10;;;;;;5064716;28;20182;-78
2022/05/04 10:00:30;;;;;;;6.90;2.97;;;22.30;57.80;;;;;;5059192;28;20201;-78
2022/05/04 10:02:58;;;;;;;5.93;2.88;;;22.40;57.90;;;;;;5064958;28;20186;-78
2022/05/04 10:05:27;;;;;;;5.65;3.40;;;22.40;57.10;;;;;;5061128;28;20206;-78
2022/05/04 10:08:01;;;;;;;8.30;3.35;;;22.40;56.50;;;;;;5059764;28;20196;-77
2022/05/04 10:10:35;;;;;;;6.00;3.30;;;22.40;56.90;;;;;;5058336;28;20576;-78
2022/05/04 10:13:04;;;;;;;5.43;3.40;;;22.50;57.00;;;;;;5084060;28;20261;-77
2022/05/04 10:15:34;;;;;;;5.38;3.35;;;22.60;56.30;;;;;;5073057;28;20301;-78
2022/05/04 10:18:13;;;;;;;6.43;3.35;;;22.60;57.00;;;;;;5063103;28;20703;-77
2022/05/04 10:20:44;;;;;;;4.88;3.03;;;22.70;56.70;;;;;;5056883;28;20204;-78
2022/05/04 10:23:18;;;;;;;5.63;2.83;;;22.80;56.40;;;;;;5049595;28;20183;-79
2022/05/04 10:25:50;;;;;;;6.60;3.28;;;22.80;56.00;;;;;;5055036;28;20190;-78
2022/05/04 10:28:19;;;;;;;5.13;2.90;;;22.90;55.50;;;;;;5058688;28;20213;-77
2022/05/04 10:30:47;;;;;;;5.25;3.10;;;22.90;55.50;;;;;;5052474;28;20547;-77
2022/05/04 10:33:18;;;;;;;5.82;3.42;;;22.90;55.30;;;;;;5078335;28;20201;-78
2022/05/04 10:35:48;;;;;;;6.50;3.63;;;23.00;54.90;;;;;;5078247;28;20193;-78
2022/05/04 10:38:18;;;;;;;5.55;2.97;;;23.00;55.30;;;;;;5065900;28;20232;-78
2022/05/04 10:40:56;;;;;;;6.35;3.20;;;23.20;54.90;;;;;;5059291;28;20194;-77
2022/05/04 10:43:36;;;;;;;5.35;2.97;;;23.20;55.20;;;;;;5072517;28;20205;-78
2022/05/04 10:46:07;;;;;;;8.80;2.90;;;23.30;55.10;;;;;;5058014;28;20814;-78
2022/05/04 10:48:36;;;;;;;5.82;3.00;;;23.30;54.50;;;;;;5047654;28;20285;-78
2022/05/04 10:51:10;;;;;;;6.55;2.72;;;23.40;54.70;;;;;;5043595;28;20687;-77
2022/05/04 10:53:41;;;;;;;5.55;2.70;;;23.50;53.60;;;;;;5051976;28;20282;-77
2022/05/04 10:56:13;;;;;;;7.43;2.45;;;23.60;53.20;;;;;;5044266;28;20199;-78
2022/05/04 10:58:56;;;;;;;4.82;2.65;;;23.60;51.80;;;;;;5055515;28;20198;-77
2022/05/04 11:01:27;;;;;;;4.88;2.58;;;23.70;52.30;;;;;;5046962;28;20198;-78
2022/05/04 11:04:07;;;;;;;5.80;2.80;;;23.70;52.30;;;;;;5059762;28;20182;-80
2022/05/04 11:06:37;;;;;;;6.22;3.03;;;23.80;52.30;;;;;;5055860;28;20282;-77
2022/05/04 11:09:08;;;;;;;4.28;2.55;;;23.80;51.50;;;;;;5051809;28;20202;-78
2022/05/04 11:11:39;;;;;;;4.63;2.70;;;23.80;50.50;;;;;;5053219;28;20195;-79
2022/05/04 11:14:09;;;;;;;4.82;2.90;;;23.90;49.90;;;;;;5045212;28;20227;-76
2022/05/04 11:16:38;;;;;;;6.10;2.40;;;23.80;48.90;;;;;;5057402;28;20226;-77
2022/05/04 11:19:08;;;;;;;4.00;2.47;;;23.90;48.70;;;;;;5054224;28;20187;-78
2022/05/04 11:21:38;;;;;;;6.35;2.58;;;23.90;48.90;;;;;;5053474;28;20227;-80
2022/05/04 11:24:13;;;;;;;5.05;2.47;;;24.00;48.60;;;;;;5044386;28;20263;-80
2022/05/04 11:26:44;;;;;;;4.80;2.80;;;24.00;49.20;;;;;;5048637;28;20226;-78
2022/05/04 11:29:14;;;;;;;4.38;2.53;;;24.10;49.70;;;;;;5049448;28;20225;-79
2022/05/04 11:31:47;;;;;;;4.20;2.08;;;24.10;49.30;;;;;;5062684;28;20243;-80
2022/05/04 11:34:16;;;;;;;4.18;2.55;;;24.10;47.80;;;;;;5044167;28;20195;-77
2022/05/04 11:36:46;;;;;;;4.43;2.35;;;24.20;48.00;;;;;;5075606;28;20218;-80
2022/05/04 11:39:16;;;;;;;7.70;2.22;;;24.20;47.90;;;;;;5065177;28;20201;-79
2022/05/04 11:41:48;;;;;;;5.78;2.58;;;24.30;48.40;;;;;;5064346;28;20277;-79
2022/05/04 11:44:18;;;;;;;3.80;1.92;;;24.30;49.00;;;;;;5065138;28;20202;-79
2022/05/04 11:46:48;;;;;;;3.60;1.88;;;24.30;49.40;;;;;;5066405;28;20194;-76
2022/05/04 11:49:16;;;;;;;5.40;1.92;;;24.30;48.40;;;;;;5061012;28;20209;-77
2022/05/04 11:51:45;;;;;;;5.88;1.83;;;24.30;48.70;;;;;;5048440;28;20723;-80
2022/05/04 11:54:13;;;;;;;6.50;2.47;;;24.30;49.00;;;;;;5047163;28;20192;-76
2022/05/04 11:56:42;;;;;;;7.93;1.77;;;24.30;48.90;;;;;;5064078;28;20586;-80
2022/05/04 11:59:12;;;;;;;3.13;1.92;;;24.40;48.80;;;;;;5056531;28;20195;-79
2022/05/04 12:01:40;;;;;;;3.83;2.38;;;24.40;48.20;;;;;;5062648;28;20198;-79
2022/05/04 12:04:11;;;;;;;3.47;2.50;;;24.50;48.20;;;;;;5064854;28;20202;-79
2022/05/04 12:06:43;;;;;;;6.22;2.03;;;24.50;47.50;;;;;;5046490;28;20191;-78
2022/05/04 12:09:18;;;;;;;3.67;1.90;;;24.50;48.10;;;;;;5022625;28;20601;-79
2022/05/04 12:11:48;;;;;;;3.95;1.80;;;24.50;47.90;;;;;;5065188;28;20902;-77
2022/05/04 12:14:18;;;;;;;7.00;2.28;;;24.50;47.80;;;;;;5054533;28;20252;-80
2022/05/04 12:16:47;;;;;;;5.25;2.13;;;24.50;48.00;;;;;;5048255;28;20183;-78
2022/05/04 12:19:18;;;;;;;4.43;2.10;;;24.60;48.00;;;;;;5053681;28;20286;-79
2022/05/04 12:21:47;;;;;;;4.72;1.98;;;24.60;47.80;;;;;;5074387;28;20285;-77
2022/05/04 12:24:15;;;;;;;5.10;2.25;;;24.60;46.70;;;;;;5064292;28;20190;-79
2022/05/04 12:26:44;;;;;;;8.48;2.13;;;24.60;45.70;;;;;;5078808;28;20197;-78
2022/05/04 12:34:49;;;;;;;3.35;1.90;;;24.80;47.70;;;;;;5060229;28;20206;-80
2022/05/04 12:37:20;;;;;;;3.78;1.90;;;24.80;47.70;;;;;;5056586;28;20284;-79
2022/05/04 12:39:50;;;;;;;4.47;2.13;;;24.80;47.00;;;;;;5062620;28;20199;-80
2022/05/04 12:46:11;;;;;;;4.82;2.10;;;24.90;45.80;;;;;;5049561;28;20265;-79
2022/05/04 12:48:45;;;;;;;8.20;2.00;;;24.90;46.30;;;;;;5010738;28;20252;-81
2022/05/04 12:51:16;;;;;;;3.70;2.08;;;24.90;46.30;;;;;;5070430;28;20206;-80
2022/05/04 12:53:47;;;;;;;4.18;2.15;;;25.00;46.50;;;;;;5049580;28;20206;-79
2022/05/04 12:59:01;;;;;;;5.90;2.22;;;25.00;46.20;;;;;;5064567;28;20233;-78
2022/05/04 13:01:31;;;;;;;6.93;2.40;;;24.90;46.50;;;;;;5070359;28;20193;-79
2022/05/04 13:04:01;;;;;;;3.50;2.55;;;24.80;46.40;;;;;;5072951;28;20202;-78
2022/05/04 13:06:29;;;;;;;7.03;2.42;;;24.80;45.90;;;;;;5062749;28;20215;-79
2022/05/04 13:08:58;;;;;;;4.00;2.38;;;24.70;46.10;;;;;;5069121;28;20828;-80
2022/05/04 13:11:26;;;;;;;4.32;2.20;;;24.60;46.60;;;;;;5059129;28;20641;-80
2022/05/04 13:13:55;;;;;;;4.50;2.20;;;24.60;46.70;;;;;;5069160;28;20437;-80
2022/05/04 13:16:30;;;;;;;4.18;2.03;;;24.50;46.80;;;;;;5065597;28;20189;-81
2022/05/04 13:19:01;;;;;;;4.50;1.88;;;24.50;47.00;;;;;;5065141;28;20317;-78
2022/05/04 13:21:30;;;;;;;4.93;1.92;;;24.50;47.10;;;;;;5056282;28;20190;-80
2022/05/04 13:24:02;;;;;;;2.90;1.90;;;24.40;46.80;;;;;;5063923;28;20203;-76
2022/05/04 13:30:21;;;;;;;2.63;1.75;;;24.30;46.40;;;;;;5055541;28;20185;-78
2022/05/04 13:32:50;;;;;;;7.75;1.83;;;24.20;45.70;;;;;;5049964;28;20830;-78
2022/05/04 13:35:21;;;;;;;2.63;1.75;;;24.10;45.00;;;;;;5063087;28;20190;-77
2022/05/04 13:37:49;;;;;;;4.38;2.08;;;24.00;44.90;;;;;;5057076;28;20221;-75
2022/05/04 13:40:20;;;;;;;4.57;2.00;;;24.00;45.50;;;;;;5060802;28;20198;-77
2022/05/04 13:42:49;;;;;;;5.13;1.98;;;23.90;45.70;;;;;;5060158;28;20278;-76
2022/05/04 13:45:17;;;;;;;3.70;2.15;;;23.90;45.60;;;;;;5063825;28;20187;-76
2022/05/04 13:47:46;;;;;;;3.38;1.73;;;23.80;45.90;;;;;;5057395;28;20197;-74